Time;durP1;ratioP1;P1;durP2;ratioP2;P2;SDS_P1;SDS_P2;PMS_P1;PMS_P2;Temp;Humidity;BMP_temperature;BMP_pressure;BME280_temperature;BME280_humidity;BME280_pressure;Samples;Min_cycle;Max_cycle;Signal;HPM_P1;HPM_P2
2022/12/05 00:00:33;;;;;;;11.35;5.18;;;;;;;-7.90;100.00;100881.66;5015766;28;20054;-52
2022/12/05 00:03:03;;;;;;;9.13;3.83;;;;;;;-8.01;100.00;100842.34;5016117;28;20053;-53
2022/12/05 00:05:30;;;;;;;8.68;4.82;;;;;;;-7.69;100.00;100841.56;5015775;28;20149;-56
2022/12/05 00:07:57;;;;;;;4.85;2.97;;;;;;;-7.72;100.00;100787.91;5016286;28;20050;-52
2022/12/05 00:10:23;;;;;;;17.38;4.68;;;;;;;-7.99;100.00;100755.97;5015741;28;20054;-57
2022/12/05 00:12:49;;;;;;;10.88;4.30;;;;;;;-7.91;100.00;100757.59;5019104;28;20149;-53
2022/12/05 00:15:16;;;;;;;7.25;3.70;;;;;;;-8.12;100.00;100735.47;5019373;28;20066;-56
2022/12/05 00:17:42;;;;;;;4.35;2.08;;;;;;;-7.93;100.00;100754.31;5019226;28;20108;-57
2022/12/05 00:20:09;;;;;;;7.22;3.53;;;;;;;-7.92;100.00;100735.47;5019064;28;20437;-55
2022/12/05 00:22:36;;;;;;;8.38;4.20;;;;;;;-7.67;100.00;100727.66;5018921;28;20054;-56
2022/12/05 00:25:05;;;;;;;10.05;3.60;;;;;;;-7.90;100.00;100674.03;5019155;28;20050;-52
2022/12/05 00:27:31;;;;;;;5.47;3.67;;;;;;;-7.86;100.00;100664.63;5018876;28;20053;-57
2022/12/05 00:29:58;;;;;;;10.82;4.28;;;;;;;-7.50;100.00;100671.28;5019145;28;20054;-53
2022/12/05 00:32:24;;;;;;;5.18;3.42;;;;;;;-7.64;100.00;100620.72;5018752;28;20085;-55
2022/12/05 00:34:50;;;;;;;12.13;4.22;;;;;;;-7.49;100.00;100619.69;5019243;28;20374;-58
2022/12/05 00:37:17;;;;;;;16.00;3.70;;;;;;;-7.86;100.00;100558.97;5018894;28;20168;-56
2022/12/05 00:39:43;;;;;;;6.72;3.50;;;;;;;-7.83;100.00;100573.69;5018585;28;20090;-54
2022/12/05 00:42:10;;;;;;;9.45;3.88;;;;;;;-8.14;100.00;100582.34;5018657;28;20057;-58
2022/12/05 00:44:36;;;;;;;5.28;2.92;;;;;;;-7.87;100.00;100639.00;5018658;28;20053;-53
2022/12/05 00:47:03;;;;;;;6.93;3.70;;;;;;;-7.95;100.00;100633.94;5018694;28;20078;-57
2022/12/05 00:49:29;;;;;;;5.72;2.38;;;;;;;-7.95;100.00;100625.94;5018752;28;20058;-54
2022/12/05 00:51:55;;;;;;;6.63;3.72;;;;;;;-7.76;100.00;100625.09;5018704;28;20092;-55
2022/12/05 00:54:22;;;;;;;7.80;3.45;;;;;;;-7.77;100.00;100626.09;5018538;28;20049;-56
2022/12/05 00:56:50;;;;;;;8.68;3.15;;;;;;;-7.74;100.00;100607.03;5018865;28;20140;-52
2022/12/05 00:59:19;;;;;;;9.23;3.13;;;;;;;-8.00;100.00;100599.13;5018462;28;20312;-53
2022/12/05 01:01:47;;;;;;;8.13;3.40;;;;;;;-7.65;100.00;100635.09;5018865;28;20467;-54
2022/12/05 01:04:16;;;;;;;5.35;3.20;;;;;;;-7.73;100.00;100635.31;5018235;28;20335;-55
2022/12/05 01:06:42;;;;;;;7.18;3.42;;;;;;;-7.65;100.00;100620.94;5018538;28;20077;-59
2022/12/05 01:09:12;;;;;;;6.15;3.80;;;;;;;-7.85;100.00;100578.41;5018521;28;20057;-57
2022/12/05 01:11:39;;;;;;;7.88;3.45;;;;;;;-7.78;100.00;100581.88;5018267;28;20065;-52
2022/12/05 01:14:06;;;;;;;5.43;2.78;;;;;;;-8.13;100.00;100571.53;5018308;28;20115;-56
2022/12/05 01:16:35;;;;;;;10.30;3.33;;;;;;;-7.89;100.00;100604.63;5018442;28;20390;-51
2022/12/05 01:19:04;;;;;;;6.43;3.20;;;;;;;-8.08;100.00;100578.88;5018356;28;20050;-56
2022/12/05 01:21:32;;;;;;;7.68;4.10;;;;;;;-7.53;100.00;100629.09;5018099;28;20149;-55
2022/12/05 01:23:58;;;;;;;2.97;2.22;;;;;;;-7.78;100.00;100576.53;5017409;28;20049;-58
2022/12/05 01:26:25;;;;;;;9.18;3.92;;;;;;;-7.56;100.00;100595.72;5018083;28;20050;-56
2022/12/05 01:28:52;;;;;;;16.48;4.70;;;;;;;-7.62;100.00;100580.59;5018436;28;20124;-57
2022/12/05 01:31:22;;;;;;;8.35;4.68;;;;;;;-7.58;100.00;100561.31;5017805;28;20145;-54
2022/12/05 01:33:50;;;;;;;7.05;2.80;;;;;;;-7.81;100.00;100559.13;5018172;28;20085;-54
2022/12/05 01:36:17;;;;;;;7.85;3.85;;;;;;;-7.47;100.00;100581.13;5017875;28;20111;-53
2022/12/05 01:38:43;;;;;;;5.97;3.70;;;;;;;-7.55;100.00;100565.41;5018010;28;20339;-52
2022/12/05 01:41:13;;;;;;;9.18;3.97;;;;;;;-7.52;100.00;100558.84;5017844;28;20064;-53
2022/12/05 01:43:57;;;;;;;6.50;3.25;;;;;;;-7.84;100.00;100537.44;5017658;28;20140;-56
2022/12/05 01:46:24;;;;;;;9.40;4.32;;;;;;;-7.83;100.00;100561.22;5018160;28;20107;-58
2022/12/05 01:48:53;;;;;;;7.18;3.20;;;;;;;-7.58;100.00;100579.13;5017623;28;20431;-52
2022/12/05 01:51:19;;;;;;;8.45;3.40;;;;;;;-7.66;100.00;100552.75;5018094;28;20368;-54
2022/12/05 01:53:45;;;;;;;7.18;4.18;;;;;;;-7.72;100.00;100567.72;5017477;28;20050;-57
2022/12/05 01:56:13;;;;;;;9.65;3.42;;;;;;;-7.65;100.00;100576.50;5017538;28;20049;-57
2022/12/05 01:58:41;;;;;;;8.10;3.92;;;;;;;-7.60;100.00;100574.03;5017489;28;20068;-57
2022/12/05 02:01:08;;;;;;;6.30;3.13;;;;;;;-8.07;100.00;100536.06;5017358;28;20053;-58
2022/12/05 02:03:36;;;;;;;6.78;3.95;;;;;;;-7.82;100.00;100585.97;5017718;28;20050;-56
2022/12/05 02:06:04;;;;;;;6.60;2.63;;;;;;;-7.89;100.00;100590.50;5017479;28;20133;-54
2022/12/05 02:08:31;;;;;;;2.13;1.67;;;;;;;-7.94;100.00;100584.97;5017590;28;20049;-53
2022/12/05 02:10:58;;;;;;;3.85;2.72;;;;;;;-8.07;100.00;100578.66;5017306;28;20101;-55
2022/12/05 02:13:57;;;;;;;4.38;2.67;;;;;;;-8.03;100.00;100572.91;5017611;28;20054;-57
2022/12/05 02:16:34;;;;;;;7.80;3.50;;;;;;;-8.07;100.00;100575.19;5017161;28;20053;-56
2022/12/05 02:19:22;;;;;;;7.65;3.38;;;;;;;-8.17;100.00;100578.25;5017448;28;20069;-58
2022/12/05 02:22:36;;;;;;;5.95;3.20;;;;;;;-8.19;100.00;100609.59;5017270;28;20074;-54
2022/12/05 02:25:25;;;;;;;9.05;3.20;;;;;;;-8.17;100.00;100599.53;4957600;29;20055;-57
2022/12/05 02:28:23;;;;;;;10.05;4.15;;;;;;;-8.22;100.00;100594.03;5012259;28;20058;-57
2022/12/05 02:30:54;;;;;;;8.23;3.63;;;;;;;-8.51;100.00;100586.53;5017308;28;20062;-58
2022/12/05 02:33:23;;;;;;;10.43;4.50;;;;;;;-8.15;100.00;100650.72;5016769;28;20130;-52
2022/12/05 02:36:02;;;;;;;7.60;3.88;;;;;;;-8.18;100.00;100627.19;5017295;28;20414;-53
2022/12/05 02:38:35;;;;;;;7.28;3.60;;;;;;;-8.13;100.00;100634.53;5016994;28;20115;-55
2022/12/05 02:41:11;;;;;;;14.27;3.47;;;;;;;-8.31;100.00;100608.56;5017226;28;20115;-56
2022/12/05 02:43:44;;;;;;;7.63;2.25;;;;;;;-8.30;100.00;100627.00;5017141;28;20077;-55
2022/12/05 02:46:14;;;;;;;5.00;3.20;;;;;;;-8.43;100.00;100631.50;5016825;28;20119;-51
2022/12/05 02:48:44;;;;;;;4.45;2.38;;;;;;;-8.46;100.00;100624.78;5017093;28;20083;-56
2022/12/05 02:51:15;;;;;;;7.65;3.85;;;;;;;-8.13;100.00;100621.22;5016656;28;20143;-55
2022/12/05 02:53:43;;;;;;;7.95;3.58;;;;;;;-8.64;100.00;100593.47;5016887;28;20053;-55
2022/12/05 02:56:11;;;;;;;9.60;3.83;;;;;;;-8.46;100.00;100619.47;5016673;28;20115;-57
2022/12/05 02:58:42;;;;;;;12.25;3.63;;;;;;;-8.36;100.00;100627.81;5017089;28;20438;-56
2022/12/05 03:01:09;;;;;;;6.93;3.17;;;;;;;-8.69;100.00;100603.09;5016392;28;20437;-56
2022/12/05 03:03:36;;;;;;;4.63;2.65;;;;;;;-8.70;100.00;100618.19;5016959;28;20049;-52
2022/12/05 03:06:08;;;;;;;9.73;2.97;;;;;;;-8.57;100.00;100641.31;5016502;28;20383;-56
2022/12/05 03:08:39;;;;;;;4.60;2.65;;;;;;;-8.73;100.00;100623.91;5016743;28;20335;-57
2022/12/05 03:11:06;;;;;;;7.43;3.10;;;;;;;-8.52;100.00;100646.06;5016602;28;20292;-53
2022/12/05 03:13:38;;;;;;;7.05;2.92;;;;;;;-8.81;100.00;100608.19;5016338;28;20060;-52
2022/12/05 03:16:09;;;;;;;9.48;3.20;;;;;;;-8.41;100.00;100650.75;5016622;28;20050;-53
2022/12/05 03:18:41;;;;;;;7.75;3.63;;;;;;;-8.53;100.00;100613.31;5016349;28;20049;-54
2022/12/05 03:21:17;;;;;;;4.85;3.28;;;;;;;-8.76;100.00;100597.78;5016716;28;20058;-52
2022/12/05 03:23:49;;;;;;;3.10;2.33;;;;;;;-8.65;100.00;100618.41;5016350;28;20343;-52
2022/12/05 03:26:23;;;;;;;9.35;3.20;;;;;;;-8.74;100.00;100602.88;5016543;28;20054;-54
2022/12/05 03:28:59;;;;;;;4.80;3.03;;;;;;;-8.75;100.00;100618.00;5016447;28;20054;-53
2022/12/05 03:31:34;;;;;;;6.28;2.85;;;;;;;-8.50;100.00;100620.88;5016141;28;20149;-58
2022/12/05 03:34:06;;;;;;;15.80;3.63;;;;;;;-8.72;100.00;100592.88;5016588;28;20112;-56
2022/12/05 03:36:39;;;;;;;6.35;2.78;;;;;;;-8.74;100.00;100587.72;5016279;28;20050;-57
2022/12/05 03:39:10;;;;;;;6.00;2.83;;;;;;;-8.56;100.00;100593.28;5016620;28;20046;-56
2022/12/05 03:41:41;;;;;;;6.97;3.50;;;;;;;-8.67;100.00;100577.91;5015947;28;20359;-56
2022/12/05 03:44:12;;;;;;;8.13;3.70;;;;;;;-8.69;100.00;100569.34;5016525;28;20304;-58
2022/12/05 03:46:43;;;;;;;5.10;2.47;;;;;;;-8.82;100.00;100570.16;5018100;28;20050;-54
2022/12/05 03:49:15;;;;;;;15.43;4.07;;;;;;;-8.97;100.00;100593.41;5019713;28;20243;-56
2022/12/05 03:51:46;;;;;;;5.55;2.90;;;;;;;-8.97;100.00;100596.09;5019763;28;20068;-56
2022/12/05 03:54:16;;;;;;;5.47;2.90;;;;;;;-8.66;100.00;100605.31;5019577;28;20057;-55
2022/12/05 03:56:47;;;;;;;5.55;3.10;;;;;;;-9.10;100.00;100588.91;5019785;28;20129;-56
2022/12/05 03:59:19;;;;;;;5.03;2.38;;;;;;;-8.89;100.00;100608.38;5019305;28;20330;-57
2022/12/05 04:01:48;;;;;;;6.70;3.25;;;;;;;-8.98;100.00;100613.06;5019595;28;20080;-55
2022/12/05 04:04:20;;;;;;;6.05;2.55;;;;;;;-9.04;100.00;100614.66;5019223;28;20054;-56
2022/12/05 04:06:50;;;;;;;5.88;2.88;;;;;;;-9.02;100.00;100631.25;5019188;28;20054;-57
2022/12/05 04:09:22;;;;;;;10.40;3.63;;;;;;;-8.94;100.00;100632.06;5019450;28;20140;-56
2022/12/05 04:11:54;;;;;;;5.32;2.72;;;;;;;-9.12;100.00;100614.88;5019338;28;20085;-54
2022/12/05 04:14:25;;;;;;;4.25;2.90;;;;;;;-8.99;100.00;100634.53;5019348;28;20049;-56
2022/12/05 04:17:02;;;;;;;5.00;2.58;;;;;;;-9.39;100.00;100621.94;5019110;28;20050;-57
2022/12/05 04:22:17;;;;;;;8.73;3.30;;;;;;;-9.34;100.00;100622.13;5017956;28;20074;-55
2022/12/05 04:27:40;;;;;;;5.20;3.20;;;;;;;-9.50;100.00;100625.13;5008740;28;20306;-58
2022/12/05 04:30:14;;;;;;;8.82;3.55;;;;;;;-9.51;100.00;100634.13;5018843;28;20057;-56
2022/12/05 04:32:44;;;;;;;;;;;;;;;-9.52;100.00;100672.31;5019545;28;20064;-58
2022/12/05 04:35:17;;;;;;;8.27;3.38;;;;;;;-9.10;100.00;100712.94;5018848;28;19929;-56
2022/12/05 04:37:49;;;;;;;5.20;2.97;;;;;;;-9.56;100.00;100682.50;5018970;28;20068;-57
2022/12/05 04:40:23;;;;;;;10.25;2.67;;;;;;;-9.48;100.00;100682.34;5018410;28;20050;-56
2022/12/05 04:42:53;;;;;;;6.75;3.63;;;;;;;-9.62;100.00;100691.25;5018501;28;20053;-56
2022/12/05 04:45:21;;;;;;;19.35;4.28;;;;;;;-9.52;100.00;100731.53;5018352;28;20148;-55
2022/12/05 04:47:50;;;;;;;4.70;3.80;;;;;;;-9.56;100.00;100746.22;5018513;28;20050;-56
2022/12/05 04:50:18;;;;;;;5.15;3.53;;;;;;;-9.63;100.00;100765.75;5018628;28;20065;-54
2022/12/05 04:52:49;;;;;;;9.50;4.47;;;;;;;-9.64;100.00;100761.47;5018418;28;20113;-56
2022/12/05 04:55:19;;;;;;;10.18;5.57;;;;;;;-9.09;100.00;100784.50;5018471;28;20081;-56
2022/12/05 04:57:52;;;;;;;14.15;5.32;;;;;;;-9.48;100.00;100730.13;5017675;28;20343;-51
2022/12/05 05:00:18;;;;;;;11.60;4.82;;;;;;;-9.43;100.00;100716.25;5018572;28;20315;-56
2022/12/05 05:02:50;;;;;;;10.90;4.60;;;;;;;-9.58;100.00;100719.03;5018345;28;20050;-59
2022/12/05 05:05:19;;;;;;;12.57;4.40;;;;;;;-9.72;100.00;100726.09;5018005;28;20053;-57
2022/12/05 05:07:47;;;;;;;13.88;4.80;;;;;;;-9.62;100.00;100748.84;5018254;28;20053;-57
2022/12/05 05:10:17;;;;;;;10.98;4.72;;;;;;;-9.32;100.00;100752.09;5018005;28;20123;-56
2022/12/05 05:12:43;;;;;;;7.80;4.50;;;;;;;-9.66;100.00;100713.06;5017713;28;20144;-59
2022/12/05 05:15:10;;;;;;;8.93;4.20;;;;;;;-9.66;100.00;100697.97;5017360;28;20441;-58
2022/12/05 05:17:36;;;;;;;11.73;4.25;;;;;;;-9.72;100.00;100704.06;5018164;28;20111;-66
2022/12/05 05:22:48;;;;;;;8.43;4.32;;;;;;;-9.90;100.00;100743.50;5002382;28;20404;-65
2022/12/05 05:25:14;;;;;;;6.80;3.78;;;;;;;-9.68;100.00;100782.28;5017748;28;20053;-66
2022/12/05 05:27:40;;;;;;;8.65;3.85;;;;;;;-9.74;100.00;100769.78;5017620;28;20050;-66
2022/12/05 05:30:08;;;;;;;8.90;3.90;;;;;;;-9.67;100.00;100783.91;5018016;28;20148;-65
2022/12/05 05:32:35;;;;;;;10.60;4.22;;;;;;;-9.73;100.00;100766.09;5017986;28;20164;-66
2022/12/05 05:35:01;;;;;;;9.00;4.35;;;;;;;-9.69;100.00;100764.72;5017793;28;20054;-66
2022/12/05 05:37:27;;;;;;;8.02;4.90;;;;;;;-9.59;100.00;100775.81;5017697;28;20420;-67
2022/12/05 05:39:54;;;;;;;8.60;3.83;;;;;;;-9.88;100.00;100738.84;5017811;28;20422;-61
2022/12/05 05:42:20;;;;;;;10.05;4.20;;;;;;;-10.01;100.00;100739.56;5017583;28;20063;-67
2022/12/05 05:44:47;;;;;;;7.13;3.33;;;;;;;-9.69;100.00;100777.16;5017862;28;20293;-61
2022/12/05 05:47:13;;;;;;;11.05;4.32;;;;;;;-9.82;100.00;100770.75;5017679;28;20050;-64
2022/12/05 05:49:39;;;;;;;6.85;3.95;;;;;;;-9.84;100.00;100778.06;5017184;28;20141;-61
2022/12/05 05:52:05;;;;;;;4.80;3.15;;;;;;;-9.96;100.00;100793.69;5017246;28;20057;-62
2022/12/05 05:54:32;;;;;;;11.65;4.15;;;;;;;-9.80;100.00;100805.84;5017299;28;20045;-67
2022/12/05 05:56:59;;;;;;;9.00;3.65;;;;;;;-9.85;100.00;100812.75;5017595;28;20123;-67
2022/12/05 05:59:25;;;;;;;9.23;3.55;;;;;;;-9.92;100.00;100803.94;5017628;28;20081;-62
2022/12/05 06:01:51;;;;;;;15.43;8.57;;;;;;;-9.93;100.00;100796.97;5017446;28;20384;-63
2022/12/05 06:04:18;;;;;;;5.25;4.28;;;;;;;-9.85;100.00;100792.34;5017475;28;20386;-67
2022/12/05 06:06:44;;;;;;;15.75;8.88;;;;;;;-10.02;100.00;100785.69;5017311;28;20049;-64
2022/12/05 06:09:10;;;;;;;10.82;5.22;;;;;;;-9.76;100.00;100801.00;5016297;28;20101;-57
2022/12/05 06:11:36;;;;;;;16.90;5.35;;;;;;;-9.73;100.00;100808.56;5017318;28;20292;-54
2022/12/05 06:14:03;;;;;;;9.63;4.85;;;;;;;-9.99;100.00;100788.75;5016565;28;20145;-56
2022/12/05 06:16:31;;;;;;;7.22;3.28;;;;;;;-9.88;100.00;100800.69;5016761;28;20054;-53
2022/12/05 06:18:58;;;;;;;15.82;5.97;;;;;;;-9.79;100.00;100812.00;5016531;28;20482;-56
2022/12/05 06:21:24;;;;;;;7.70;4.18;;;;;;;-9.83;100.00;100795.66;5016531;28;20045;-55
2022/12/05 06:23:51;;;;;;;9.32;4.53;;;;;;;-9.78;100.00;100798.53;5016214;28;20092;-59
2022/12/05 06:26:19;;;;;;;10.57;4.20;;;;;;;-9.69;100.00;100793.06;5016169;28;20061;-56
2022/12/05 06:28:46;;;;;;;10.45;5.20;;;;;;;-9.76;100.00;100779.78;5016178;28;20058;-56
2022/12/05 06:31:16;;;;;;;10.70;4.57;;;;;;;-9.91;100.00;100760.44;5015749;28;20054;-61
2022/12/05 06:33:43;;;;;;;15.48;4.65;;;;;;;-10.02;100.00;100761.81;5015962;28;20054;-63
2022/12/05 06:36:12;;;;;;;8.98;3.63;;;;;;;-9.67;100.00;100777.78;5016968;28;20062;-61
2022/12/05 06:38:39;;;;;;;7.93;3.80;;;;;;;-9.86;100.00;100744.75;5016878;28;20052;-63
2022/12/05 06:41:06;;;;;;;4.75;2.97;;;;;;;-9.75;100.00;100744.25;5016535;28;20050;-64
2022/12/05 06:43:32;;;;;;;7.93;4.07;;;;;;;-9.76;100.00;100756.72;5016964;28;20050;-64
2022/12/05 06:45:59;;;;;;;7.63;3.60;;;;;;;-9.67;100.00;100745.94;5016392;28;20145;-63
2022/12/05 06:48:26;;;;;;;9.30;4.13;;;;;;;-9.38;100.00;100755.53;5016382;28;20058;-62
2022/12/05 06:50:53;;;;;;;7.90;4.15;;;;;;;-9.58;100.00;100702.31;5016299;28;20147;-62
2022/12/05 06:53:19;;;;;;;8.18;4.50;;;;;;;-9.46;100.00;100671.53;5016378;28;20133;-64
2022/12/05 06:55:55;;;;;;;6.25;4.43;;;;;;;-9.69;100.00;100645.28;5016363;28;20064;-63
2022/12/05 06:58:21;;;;;;;8.18;4.07;;;;;;;-9.61;100.00;100645.09;5016451;28;20060;-62
2022/12/05 07:03:32;;;;;;;13.60;5.68;;;;;;;-9.74;100.00;100632.56;5016809;28;20137;-63
2022/12/05 07:05:59;;;;;;;26.67;11.57;;;;;;;-9.56;100.00;100642.69;5016297;28;20062;-65
2022/12/05 07:08:26;;;;;;;11.57;4.93;;;;;;;-9.50;100.00;100635.75;5016621;28;20091;-64
2022/12/05 07:10:52;;;;;;;13.20;4.78;;;;;;;-9.45;100.00;100633.34;5016466;28;20096;-62
2022/12/05 07:13:19;;;;;;;12.00;5.85;;;;;;;-9.36;100.00;100592.31;5016583;28;20054;-64
2022/12/05 07:15:47;;;;;;;11.85;6.28;;;;;;;-9.22;100.00;100581.75;5016155;28;20114;-60
2022/12/05 07:18:13;;;;;;;12.25;5.65;;;;;;;-9.37;100.00;100540.22;5016006;28;20050;-64
2022/12/05 07:20:41;;;;;;;6.25;3.67;;;;;;;-9.33;100.00;100522.88;5017782;28;20065;-63
2022/12/05 07:23:07;;;;;;;11.20;6.03;;;;;;;-9.35;100.00;100494.88;5019424;28;20194;-61
2022/12/05 07:25:34;;;;;;;15.18;6.18;;;;;;;-9.12;100.00;100497.16;5019758;28;20050;-65
2022/12/05 07:28:00;;;;;;;9.85;4.35;;;;;;;-9.32;100.00;100462.59;5019452;28;20419;-64
2022/12/05 07:30:26;;;;;;;14.00;6.95;;;;;;;-8.97;100.00;100455.25;5019876;28;20106;-65
2022/12/05 07:32:53;;;;;;;11.93;4.78;;;;;;;-9.12;100.00;100409.50;5019531;28;20060;-64
2022/12/05 07:35:19;;;;;;;8.15;4.22;;;;;;;-8.98;100.00;100403.13;5019732;28;20096;-64
2022/12/05 07:37:46;;;;;;;13.75;6.25;;;;;;;-8.86;100.00;100372.25;5019296;28;20053;-60
2022/12/05 07:40:13;;;;;;;8.35;4.32;;;;;;;-8.84;100.00;100358.75;5019566;28;20392;-63
2022/12/05 07:42:39;;;;;;;15.75;4.88;;;;;;;-8.77;100.00;100332.97;5019153;28;20363;-65
2022/12/05 07:45:07;;;;;;;6.20;2.72;;;;;;;-9.04;100.00;100292.38;5019725;28;20087;-58
2022/12/05 07:47:33;;;;;;;12.48;5.20;;;;;;;-9.05;100.00;100285.44;5019486;28;20370;-61
2022/12/05 07:50:00;;;;;;;7.72;3.28;;;;;;;-9.04;100.00;100287.06;5019283;28;20086;-59
2022/12/05 07:52:27;;;;;;;12.70;4.65;;;;;;;-8.83;100.00;100301.91;5019252;28;20049;-62
2022/12/05 07:54:54;;;;;;;11.70;4.95;;;;;;;-8.90;100.00;100280.66;5018352;28;20045;-59
2022/12/05 07:57:20;;;;;;;11.50;4.57;;;;;;;-8.35;100.00;100290.84;5019346;28;20058;-60
2022/12/05 07:59:46;;;;;;;9.23;4.10;;;;;;;-8.52;100.00;100229.38;5019038;28;20052;-58
2022/12/05 08:02:12;;;;;;;8.90;3.83;;;;;;;-8.27;100.00;100184.16;5019294;28;20065;-63
2022/12/05 08:04:39;;;;;;;8.77;4.43;;;;;;;-8.46;100.00;100129.31;5018827;28;20057;-57
2022/12/05 08:07:05;;;;;;;14.57;5.85;;;;;;;-8.19;100.00;100127.22;5019327;28;20058;-61
2022/12/05 08:09:31;;;;;;;13.35;5.65;;;;;;;-7.75;100.00;100120.03;5018856;28;20287;-57
2022/12/05 08:11:58;;;;;;;10.60;4.28;;;;;;;-8.12;100.00;100035.66;5019455;28;20382;-62
2022/12/05 08:14:24;;;;;;;12.55;6.25;;;;;;;-8.07;100.00;100019.84;5018901;28;20100;-60
2022/12/05 08:16:51;;;;;;;16.45;6.15;;;;;;;-8.09;100.00;100005.97;5018995;28;20062;-61
2022/12/05 08:19:17;;;;;;;7.30;4.32;;;;;;;-8.08;100.00;99994.28;5018915;28;20050;-58
2022/12/05 08:21:43;;;;;;;4.15;3.28;;;;;;;-8.22;100.00;99982.16;5018765;28;20437;-62
2022/12/05 08:24:11;;;;;;;12.35;4.60;;;;;;;-8.09;100.00;99989.19;5019001;28;20425;-61
2022/12/05 08:26:37;;;;;;;13.52;5.72;;;;;;;-7.72;100.00;99989.94;5018813;28;20104;-58
2022/12/05 08:29:07;;;;;;;5.97;3.65;;;;;;;-8.29;100.00;99955.63;5018735;28;20356;-61
2022/12/05 08:31:36;;;;;;;15.45;4.38;;;;;;;-7.93;100.00;99982.44;5018322;28;20093;-62
2022/12/05 08:34:02;;;;;;;9.27;5.18;;;;;;;-8.08;100.00;99962.34;5019092;28;20056;-62
2022/12/05 08:36:29;;;;;;;11.13;5.18;;;;;;;-8.24;100.00;99964.78;5018605;28;20054;-58
2022/12/05 08:38:57;;;;;;;14.02;5.55;;;;;;;-7.67;100.00;99992.75;5019144;28;20076;-61
2022/12/05 08:41:27;;;;;;;15.25;5.05;;;;;;;-8.18;100.00;99970.03;5018250;28;20098;-62
2022/12/05 08:43:53;;;;;;;10.57;5.93;;;;;;;-8.22;100.00;99974.19;5018643;28;20339;-58
2022/12/05 08:46:20;;;;;;;13.40;4.43;;;;;;;-8.22;100.00;99981.34;5018666;28;20123;-59
2022/12/05 08:48:47;;;;;;;9.93;5.10;;;;;;;-8.38;100.00;99996.88;5018402;28;20116;-63
2022/12/05 08:51:13;;;;;;;13.00;5.40;;;;;;;-7.78;100.00;100006.81;5018685;28;20140;-61
2022/12/05 08:53:40;;;;;;;18.20;6.25;;;;;;;-7.94;100.00;99988.78;5018337;28;20054;-60
2022/12/05 08:56:07;;;;;;;13.18;6.30;;;;;;;-7.99;100.00;99968.19;5018572;28;20141;-61
2022/12/05 08:58:34;;;;;;;18.08;6.05;;;;;;;-8.19;100.00;99972.94;5018166;28;20478;-61
2022/12/05 09:01:04;;;;;;;11.98;4.68;;;;;;;-8.36;100.00;99986.00;5018356;28;20411;-60
2022/12/05 09:03:31;;;;;;;11.10;4.68;;;;;;;-8.23;100.00;99987.69;5018157;28;20050;-59
2022/12/05 09:06:05;;;;;;;14.48;6.68;;;;;;;-7.88;100.00;100002.03;5018613;28;20050;-63
2022/12/05 09:08:31;;;;;;;12.63;5.75;;;;;;;-8.22;100.00;99982.16;5018404;28;20434;-63
2022/12/05 09:10:58;;;;;;;14.40;5.43;;;;;;;-8.25;100.00;99977.28;5018319;28;20054;-59
2022/12/05 09:13:24;;;;;;;11.50;5.57;;;;;;;-8.05;100.00;99993.03;5018351;28;20085;-60
2022/12/05 09:15:50;;;;;;;14.15;5.70;;;;;;;-7.65;100.00;99985.34;5018190;28;20081;-61
2022/12/05 09:18:17;;;;;;;9.55;5.50;;;;;;;-7.59;100.00;99968.47;5018288;28;20060;-60
2022/12/05 09:20:44;;;;;;;12.13;6.13;;;;;;;-8.05;100.00;99943.28;5017804;28;20058;-63
2022/12/05 09:23:10;;;;;;;15.95;6.22;;;;;;;-7.43;100.00;99953.72;5018322;28;20160;-59
2022/12/05 09:25:36;;;;;;;12.95;4.13;;;;;;;-7.80;100.00;99929.03;5017852;28;20137;-61
2022/12/05 09:28:02;;;;;;;13.82;5.40;;;;;;;-7.82;100.00;99915.94;5018245;28;20061;-60
2022/12/05 09:30:29;;;;;;;11.55;5.75;;;;;;;-7.76;100.00;99908.91;5017763;28;20081;-63
2022/12/05 09:32:55;;;;;;;11.50;5.30;;;;;;;-7.83;100.00;99903.69;5017905;28;20058;-63
2022/12/05 09:35:22;;;;;;;13.07;5.93;;;;;;;-8.19;100.00;99912.56;5017650;28;20046;-59
2022/12/05 09:37:48;;;;;;;15.60;6.30;;;;;;;-7.99;100.00;99927.47;5017466;28;20138;-63
2022/12/05 09:40:16;;;;;;;11.73;5.90;;;;;;;-7.56;100.00;99924.59;5017573;28;20060;-60
2022/12/05 09:42:53;;;;;;;14.60;6.05;;;;;;;-7.97;100.00;99896.91;5017158;28;20062;-60
2022/12/05 09:45:25;;;;;;;8.90;4.25;;;;;;;-8.09;100.00;99902.19;5017181;28;20128;-60
2022/12/05 09:47:56;;;;;;;13.95;5.90;;;;;;;-7.79;100.00;99905.91;5017616;28;20402;-60
2022/12/05 09:50:25;;;;;;;12.90;5.70;;;;;;;-7.75;100.00;99899.88;5017849;28;20053;-62
2022/12/05 09:53:03;;;;;;;10.73;4.78;;;;;;;-7.91;100.00;99911.16;5017339;28;20057;-61
2022/12/05 09:55:37;;;;;;;15.05;4.80;;;;;;;-7.81;100.00;99912.25;5017636;28;20064;-61
2022/12/05 09:58:12;;;;;;;14.20;6.22;;;;;;;-7.81;100.00;99916.75;5017389;28;20141;-62
2022/12/05 10:00:38;;;;;;;8.40;4.95;;;;;;;-7.97;100.00;99909.41;5017012;28;20045;-58
2022/12/05 10:03:18;;;;;;;12.50;5.97;;;;;;;-7.32;100.00;99938.78;5017489;28;20049;-62
2022/12/05 10:05:52;;;;;;;15.98;6.93;;;;;;;-7.53;100.00;99902.00;5017197;28;20077;-60
2022/12/05 10:08:25;;;;;;;13.65;5.40;;;;;;;-7.46;100.00;99894.72;5017712;28;20164;-62
2022/12/05 10:11:00;;;;;;;12.27;5.47;;;;;;;-7.44;100.00;99874.03;5016522;28;20212;-61
2022/12/05 10:13:44;;;;;;;14.68;5.88;;;;;;;-7.41;100.00;99878.88;5017397;28;20404;-62
2022/12/05 10:16:16;;;;;;;12.60;5.60;;;;;;;-7.53;100.00;99880.72;5017284;28;20407;-58
2022/12/05 10:18:46;;;;;;;13.98;5.47;;;;;;;-7.68;100.00;99878.50;5016777;28;20050;-61
2022/12/05 10:21:19;;;;;;;11.00;6.22;;;;;;;-7.58;100.00;99898.19;5017236;28;20318;-62
2022/12/05 10:23:53;;;;;;;20.10;6.40;;;;;;;-7.28;100.00;99893.84;5017008;28;20060;-59
2022/12/05 10:26:21;;;;;;;22.58;9.38;;;;;;;-7.24;100.00;99893.16;5017293;28;20058;-60
2022/12/05 10:28:53;;;;;;;14.35;5.72;;;;;;;-7.23;100.00;99876.16;5016668;28;20151;-63
2022/12/05 10:31:24;;;;;;;15.32;6.75;;;;;;;-7.27;100.00;99858.16;5017181;28;20060;-59
2022/12/05 10:33:56;;;;;;;8.73;4.22;;;;;;;-7.45;100.00;99845.78;5017046;28;20049;-63
2022/12/05 10:36:25;;;;;;;16.10;6.43;;;;;;;-7.26;100.00;99854.44;5016843;28;20080;-68
2022/12/05 10:38:52;;;;;;;17.75;6.53;;;;;;;-6.95;100.00;99839.97;5016747;28;20456;-64
2022/12/05 10:41:18;;;;;;;13.25;5.15;;;;;;;-7.16;100.00;99839.53;5016661;28;20454;-61
2022/12/05 10:43:45;;;;;;;12.27;6.43;;;;;;;-7.08;100.00;99817.03;5016841;28;20054;-62
2022/12/05 10:46:16;;;;;;;12.55;6.78;;;;;;;-7.00;100.00;99819.34;5016682;28;20072;-63
2022/12/05 10:48:42;;;;;;;23.50;6.78;;;;;;;-6.87;100.00;99804.97;5016655;28;20054;-65
2022/12/05 10:51:13;;;;;;;10.20;3.85;;;;;;;-7.17;100.00;99795.25;5016676;28;20077;-64
2022/12/05 10:53:42;;;;;;;17.13;5.25;;;;;;;-6.69;100.00;99799.47;5016629;28;20064;-64
2022/12/05 10:56:44;;;;;;;20.60;8.02;;;;;;;-6.62;100.00;99791.34;5016048;28;20142;-61
2022/12/05 10:59:11;;;;;;;10.50;5.53;;;;;;;-6.84;100.00;99759.16;5016217;28;20064;-63
2022/12/05 11:01:45;;;;;;;9.93;5.38;;;;;;;-6.54;100.00;99761.63;5016439;28;20326;-62
2022/12/05 11:04:23;;;;;;;11.55;5.30;;;;;;;-6.48;100.00;99752.66;5016310;28;20061;-64
2022/12/05 11:06:53;;;;;;;9.57;4.38;;;;;;;-6.85;100.00;99738.09;5016687;28;20065;-65
2022/12/05 11:09:22;;;;;;;9.27;5.40;;;;;;;-6.57;100.00;99735.41;5016246;28;20108;-63
2022/12/05 11:12:14;;;;;;;12.95;6.18;;;;;;;-6.59;100.00;99724.19;5016599;28;20089;-66
2022/12/05 11:14:52;;;;;;;10.80;5.57;;;;;;;-6.35;100.00;99726.75;5016133;28;20050;-65
2022/12/05 11:17:24;;;;;;;14.10;7.07;;;;;;;-6.61;100.00;99726.28;5016373;28;20054;-65
2022/12/05 11:19:51;;;;;;;9.15;4.25;;;;;;;-7.08;100.00;99714.97;5016273;28;20045;-64
2022/12/05 11:22:17;;;;;;;18.70;5.40;;;;;;;-6.54;100.00;99734.13;5015873;28;20094;-65
2022/12/05 11:24:43;;;;;;;11.50;4.65;;;;;;;-7.25;100.00;99730.88;5016172;28;20053;-65
2022/12/05 11:27:25;;;;;;;9.25;4.60;;;;;;;-7.34;100.00;99733.88;5016472;28;20054;-68
2022/12/05 11:29:58;;;;;;;15.57;6.32;;;;;;;-7.19;100.00;99754.72;5016858;28;20053;-67
2022/12/05 11:32:27;;;;;;;12.40;5.57;;;;;;;-7.45;100.00;99773.88;5015846;28;20159;-64
2022/12/05 11:35:07;;;;;;;11.65;5.00;;;;;;;-7.54;100.00;99808.00;5016100;28;20371;-67
2022/12/05 11:37:39;;;;;;;9.18;5.05;;;;;;;-7.77;100.00;99806.13;5016429;28;20211;-68